createdAt,value
2017-06-23T00:01:36.706Z,39.73
2017-06-23T00:04:05.738Z,42.73
2017-06-23T00:06:34.782Z,41.50
2017-06-23T00:09:04.102Z,39.47
2017-06-23T00:11:33.124Z,42.33
2017-06-23T00:14:02.143Z,40.77
2017-06-23T00:16:31.166Z,38.83
2017-06-23T00:19:00.610Z,38.00
2017-06-23T00:21:30.158Z,41.83
2017-06-23T00:23:59.144Z,38.43
2017-06-23T00:26:28.195Z,37.70
2017-06-23T00:28:57.200Z,38.63
2017-06-23T00:31:26.250Z,39.90
2017-06-23T00:33:55.179Z,40.40
2017-06-23T00:36:24.184Z,41.00
2017-06-23T00:38:53.149Z,40.60
2017-06-23T00:42:41.726Z,39.90
2017-06-23T00:45:10.725Z,40.07
2017-06-23T00:47:39.730Z,40.03
2017-06-23T00:50:08.746Z,39.93
2017-06-23T00:52:38.070Z,39.00
2017-06-23T00:55:07.200Z,40.53
2017-06-23T00:57:36.397Z,40.87
2017-06-23T01:00:05.403Z,40.10
2017-06-23T01:02:34.360Z,41.90
2017-06-23T01:05:03.311Z,41.80
2017-06-23T01:07:32.291Z,42.53
2017-06-23T01:10:01.381Z,42.70
2017-06-23T01:12:30.375Z,40.20
2017-06-23T01:14:59.393Z,39.63
2017-06-23T01:17:28.359Z,41.23
2017-06-23T01:19:57.311Z,37.40
2017-06-23T01:22:26.291Z,35.07
2017-06-23T01:24:55.314Z,32.47
2017-06-23T01:27:24.280Z,33.47
2017-06-23T01:29:53.311Z,30.77
2017-06-23T01:32:22.301Z,29.87
2017-06-23T01:34:51.354Z,30.33
2017-06-23T01:37:20.449Z,31.33
2017-06-23T01:39:49.445Z,30.17
2017-06-23T01:42:18.442Z,29.87
2017-06-23T01:44:47.435Z,32.00
2017-06-23T01:47:16.501Z,27.60
2017-06-23T01:49:45.464Z,29.57
2017-06-23T01:52:14.482Z,29.13
2017-06-23T01:54:43.469Z,27.40
2017-06-23T01:57:12.472Z,29.20
2017-06-23T01:59:41.481Z,28.30
2017-06-23T02:02:10.728Z,27.50
2017-06-23T02:04:39.729Z,30.50
2017-06-23T02:07:08.752Z,31.60
2017-06-23T02:09:37.712Z,29.43
2017-06-23T02:12:06.689Z,30.03
2017-06-23T02:14:35.659Z,31.53
2017-06-23T02:17:04.649Z,30.00
2017-06-23T02:19:33.688Z,31.30
2017-06-23T02:22:02.787Z,30.10
2017-06-23T02:24:31.793Z,28.77
2017-06-23T02:27:00.796Z,31.97
2017-06-23T02:29:29.737Z,33.27
2017-06-23T02:31:58.786Z,31.93
2017-06-23T02:34:27.789Z,33.87
2017-06-23T02:36:57.088Z,34.10
2017-06-23T02:39:26.129Z,33.00
2017-06-23T02:41:55.138Z,31.83
2017-06-23T02:44:24.146Z,34.03
2017-06-23T02:46:53.145Z,35.70
2017-06-23T02:49:22.189Z,36.37
2017-06-23T02:51:51.176Z,33.87
2017-06-23T02:54:20.180Z,33.67
2017-06-23T02:56:49.120Z,35.50
2017-06-23T02:59:18.307Z,33.80
2017-06-23T03:01:47.302Z,34.17
2017-06-23T03:04:16.272Z,30.50
2017-06-23T03:06:45.418Z,33.37
2017-06-23T03:09:14.405Z,34.90
2017-06-23T03:11:43.373Z,34.10
2017-06-23T03:14:12.377Z,32.10
2017-06-23T03:16:41.346Z,34.40
2017-06-23T03:19:10.328Z,32.80
2017-06-23T03:21:39.304Z,33.87
2017-06-23T03:24:08.284Z,31.73
2017-06-23T03:26:37.260Z,34.00
2017-06-23T03:29:06.398Z,32.63
2017-06-23T03:31:35.410Z,30.77
2017-06-23T03:34:04.411Z,32.67
2017-06-23T03:36:33.608Z,32.03
2017-06-23T03:39:02.730Z,29.13
2017-06-23T03:41:31.770Z,31.13
2017-06-23T03:44:00.783Z,34.67
2017-06-23T03:46:29.793Z,32.70
2017-06-23T03:48:58.809Z,32.07
2017-06-23T03:51:27.785Z,31.10
2017-06-23T03:53:56.834Z,30.10
2017-06-23T03:56:25.793Z,30.33
2017-06-23T03:58:54.760Z,28.77
2017-06-23T04:01:23.717Z,30.67
2017-06-23T04:03:52.692Z,31.90
2017-06-23T04:06:21.655Z,30.50
2017-06-23T04:08:50.633Z,28.00
2017-06-23T04:11:19.584Z,30.07
2017-06-23T04:13:48.571Z,30.63
2017-06-23T04:16:17.564Z,29.67
2017-06-23T04:18:46.526Z,29.10
2017-06-23T04:21:15.544Z,27.50
2017-06-23T04:23:44.533Z,30.80
2017-06-23T04:26:13.506Z,29.90
2017-06-23T04:28:42.527Z,29.30
2017-06-23T04:31:11.592Z,30.90
2017-06-23T04:33:40.629Z,30.63
2017-06-23T04:36:09.626Z,31.30
2017-06-23T04:38:38.562Z,30.90
2017-06-23T04:41:07.598Z,30.70
2017-06-23T04:43:36.597Z,30.80
2017-06-23T04:46:05.629Z,32.07
2017-06-23T04:48:34.643Z,34.10
2017-06-23T04:51:03.629Z,33.90
2017-06-23T04:53:32.642Z,33.07
2017-06-23T04:56:01.618Z,31.40
2017-06-23T04:58:30.621Z,32.27
2017-06-23T05:00:59.628Z,31.80
2017-06-23T05:03:28.597Z,32.70
2017-06-23T05:05:57.592Z,31.77
2017-06-23T05:08:26.609Z,29.57
2017-06-23T05:10:55.621Z,28.73
2017-06-23T05:13:24.658Z,29.53
2017-06-23T05:15:53.758Z,31.90
2017-06-23T05:18:22.761Z,31.80
2017-06-23T05:20:51.789Z,30.90
2017-06-23T05:23:20.831Z,31.87
2017-06-23T05:25:49.789Z,29.40
2017-06-23T05:28:18.761Z,31.90
2017-06-23T05:30:47.734Z,31.97
2017-06-23T05:33:16.715Z,29.53
2017-06-23T05:35:45.722Z,30.30
2017-06-23T05:38:16.688Z,28.27
2017-06-23T05:40:45.695Z,30.07
2017-06-23T05:43:14.675Z,31.60
2017-06-23T05:45:43.695Z,29.30
2017-06-23T05:48:12.796Z,29.87
2017-06-23T05:50:42.054Z,28.80
2017-06-23T05:53:11.085Z,31.13
2017-06-23T05:55:40.124Z,28.57
2017-06-23T05:58:10.157Z,27.50
2017-06-23T06:00:39.211Z,27.67
2017-06-23T06:03:08.323Z,29.20
2017-06-23T06:05:37.384Z,26.73
2017-06-23T06:08:06.421Z,26.80
2017-06-23T06:10:35.365Z,26.70
2017-06-23T06:13:04.370Z,25.73
2017-06-23T06:15:33.449Z,26.23
2017-06-23T06:18:02.497Z,27.00
2017-06-23T06:20:31.597Z,24.87
2017-06-23T06:23:01.094Z,25.77
2017-06-23T06:25:30.217Z,24.80
2017-06-23T06:27:59.254Z,24.37
2017-06-23T06:30:28.282Z,23.50
2017-06-23T06:32:57.333Z,22.20
2017-06-23T06:35:26.349Z,23.07
2017-06-23T06:37:55.296Z,24.07
2017-06-23T06:40:24.318Z,21.10
2017-06-23T06:42:53.357Z,21.70
2017-06-23T06:45:22.546Z,23.53
2017-06-23T06:47:51.631Z,22.30
2017-06-23T06:50:20.673Z,23.73
2017-06-23T06:52:49.668Z,17.93
2017-06-23T06:55:18.756Z,17.70
2017-06-23T06:57:47.737Z,16.97
2017-06-23T07:00:16.778Z,16.60
2017-06-23T07:02:45.788Z,16.00
2017-06-23T07:05:14.873Z,14.63
2017-06-23T07:07:43.861Z,14.20
2017-06-23T07:10:12.884Z,15.17
2017-06-23T07:12:41.897Z,14.43
2017-06-23T07:15:10.868Z,14.00
2017-06-23T07:17:39.857Z,14.20
2017-06-23T07:20:08.851Z,13.97
2017-06-23T07:22:37.922Z,13.37
2017-06-23T07:25:06.995Z,13.90
2017-06-23T07:27:36.084Z,13.90
2017-06-23T07:30:05.898Z,11.83
2017-06-23T07:32:34.936Z,13.50
2017-06-23T07:35:03.976Z,11.97
2017-06-23T07:37:33.131Z,11.80
2017-06-23T07:40:02.248Z,10.13
2017-06-23T07:42:31.291Z,10.33
2017-06-23T07:45:00.387Z,10.07
2017-06-23T07:47:29.344Z,9.37
2017-06-23T07:49:58.372Z,8.20
2017-06-23T07:52:27.647Z,7.80
2017-06-23T07:54:56.650Z,7.90
2017-06-23T07:57:25.677Z,7.60
2017-06-23T07:59:54.670Z,7.93
2017-06-23T08:02:23.681Z,8.13
2017-06-23T08:04:52.795Z,9.90
2017-06-23T08:07:21.772Z,10.37
2017-06-23T08:09:50.767Z,11.10
2017-06-23T08:12:19.738Z,10.70
2017-06-23T08:14:48.738Z,11.07
2017-06-23T08:17:17.734Z,10.40
2017-06-23T08:19:51.069Z,10.60
2017-06-23T08:22:20.077Z,10.83
2017-06-23T08:24:49.775Z,10.40
2017-06-23T08:27:18.820Z,10.50
2017-06-23T08:29:47.846Z,11.13
2017-06-23T08:32:16.976Z,10.67
2017-06-23T08:34:46.070Z,10.47
2017-06-23T08:37:15.209Z,10.90
2017-06-23T08:39:44.372Z,11.70
2017-06-23T08:42:13.515Z,12.30
2017-06-23T08:44:42.647Z,10.50
2017-06-23T08:47:11.713Z,9.93
2017-06-23T08:49:40.776Z,11.57
2017-06-23T08:52:09.861Z,11.33
2017-06-23T08:54:38.915Z,11.70
2017-06-23T08:57:08.030Z,12.97
2017-06-23T08:59:37.085Z,12.17
2017-06-23T09:04:44.238Z,12.50
2017-06-23T09:07:13.283Z,15.60
2017-06-23T09:09:42.297Z,13.10
2017-06-23T09:12:11.307Z,15.37
2017-06-23T09:14:40.360Z,17.53
2017-06-23T09:17:09.362Z,15.30
2017-06-23T09:19:38.387Z,16.27
2017-06-23T09:22:07.428Z,15.00
2017-06-23T09:24:36.464Z,15.70
2017-06-23T09:27:05.433Z,16.50
2017-06-23T09:29:34.467Z,15.57
2017-06-23T09:32:03.588Z,16.57
2017-06-23T09:34:32.675Z,17.10
2017-06-23T09:37:01.781Z,16.03
2017-06-23T09:39:30.791Z,17.00
2017-06-23T09:41:59.842Z,16.93
2017-06-23T09:44:28.842Z,16.83
2017-06-23T09:46:57.849Z,16.60
2017-06-23T09:49:26.870Z,18.70
2017-06-23T09:51:55.868Z,16.70
2017-06-23T09:54:25.123Z,17.40
2017-06-23T09:56:54.126Z,17.03
2017-06-23T09:59:23.322Z,16.83
2017-06-23T10:01:52.434Z,16.53
2017-06-23T10:04:21.634Z,17.80
2017-06-23T10:06:50.707Z,16.37
2017-06-23T10:09:19.875Z,17.00
2017-06-23T10:11:48.896Z,20.17
2017-06-23T10:14:17.938Z,18.43
2017-06-23T10:16:46.946Z,16.93
2017-06-23T10:19:22.265Z,17.80
2017-06-23T10:21:51.446Z,17.77
2017-06-23T10:24:20.469Z,17.37
2017-06-23T10:26:49.494Z,19.17
2017-06-23T10:29:18.514Z,20.10
2017-06-23T10:31:47.577Z,18.43
2017-06-23T10:34:16.907Z,20.00
2017-06-23T10:36:45.921Z,19.90
2017-06-23T10:39:15.067Z,19.60
2017-06-23T10:41:44.148Z,20.10
2017-06-23T10:44:13.356Z,19.27
2017-06-23T10:46:42.710Z,19.20
2017-06-23T10:49:11.762Z,18.40
2017-06-23T10:51:40.791Z,19.87
2017-06-23T10:54:09.943Z,20.67
2017-06-23T10:56:41.915Z,20.83
2017-06-23T10:59:11.039Z,19.60
2017-06-23T11:01:40.229Z,19.57
2017-06-23T11:04:10.091Z,19.77
2017-06-23T11:06:39.606Z,19.93
2017-06-23T11:09:08.992Z,21.40
2017-06-23T11:11:38.161Z,20.90
2017-06-23T11:14:07.632Z,22.07
2017-06-23T11:16:38.496Z,21.50
2017-06-23T11:19:07.731Z,21.87
2017-06-23T11:21:36.917Z,20.17
2017-06-23T11:24:05.987Z,20.20
2017-06-23T11:26:36.640Z,21.40
2017-06-23T11:29:05.724Z,20.80
2017-06-23T11:31:34.796Z,20.30
2017-06-23T11:34:04.002Z,20.20
2017-06-23T11:36:33.183Z,20.80
2017-06-23T11:39:02.258Z,21.70
2017-06-23T11:41:31.405Z,22.57
2017-06-23T11:44:00.589Z,23.33
2017-06-23T11:46:29.774Z,22.40
2017-06-23T11:48:58.966Z,23.17
2017-06-23T11:51:28.372Z,23.50
2017-06-23T11:53:57.621Z,22.47
2017-06-23T11:56:26.759Z,21.50
2017-06-23T11:58:55.870Z,22.20
2017-06-23T12:01:24.942Z,20.17
2017-06-23T12:03:54.099Z,20.23
2017-06-23T12:06:23.305Z,19.67
2017-06-23T12:08:52.371Z,19.67
2017-06-23T12:11:21.542Z,18.57
2017-06-23T12:13:50.590Z,18.53
2017-06-23T12:16:19.658Z,19.53
2017-06-23T12:18:48.752Z,18.93
2017-06-23T12:21:17.843Z,16.97
2017-06-23T12:23:46.879Z,18.27
2017-06-23T12:26:15.912Z,18.17
2017-06-23T12:28:45.071Z,17.77
2017-06-23T12:31:14.176Z,18.40
2017-06-23T12:33:43.426Z,17.30
2017-06-23T12:36:12.530Z,15.80
2017-06-23T12:38:41.576Z,17.87
2017-06-23T12:41:10.587Z,17.40
2017-06-23T12:43:39.613Z,16.13
2017-06-23T12:46:08.722Z,17.50
2017-06-23T12:48:37.764Z,17.87
2017-06-23T12:51:06.913Z,17.83
2017-06-23T12:53:35.959Z,16.83
2017-06-23T12:56:05.050Z,16.00
2017-06-23T12:58:34.169Z,17.30
2017-06-23T13:01:03.672Z,17.23
2017-06-23T13:03:32.864Z,19.40
2017-06-23T13:06:01.912Z,19.50
2017-06-23T13:08:34.860Z,19.83
2017-06-23T13:11:05.793Z,18.83
2017-06-23T13:13:37.046Z,19.00
2017-06-23T13:18:51.380Z,15.10
2017-06-23T13:21:59.393Z,15.00
2017-06-23T13:24:36.780Z,15.53
2017-06-23T13:30:03.984Z,16.00
2017-06-23T13:32:50.370Z,14.07
2017-06-23T13:35:29.614Z,14.90
2017-06-23T13:40:57.303Z,13.60
2017-06-23T13:43:41.173Z,14.30
2017-06-23T13:46:21.391Z,15.27
2017-06-23T13:49:01.462Z,15.80
2017-06-23T13:51:46.931Z,15.30
2017-06-23T13:54:28.614Z,15.33
2017-06-23T14:03:14.619Z,15.00
2017-06-23T14:05:57.452Z,15.17
2017-06-23T14:11:50.432Z,16.37
2017-06-23T14:14:40.993Z,15.70
2017-06-23T14:17:38.391Z,16.30
2017-06-23T14:20:25.983Z,15.00
2017-06-23T14:23:30.473Z,15.97
2017-06-23T14:46:29.603Z,15.97
2017-06-23T14:48:58.756Z,15.10
2017-06-23T14:51:29.024Z,14.77
2017-06-23T14:53:58.344Z,14.73
2017-06-23T14:56:27.445Z,16.03
2017-06-23T14:58:56.536Z,14.63
2017-06-23T15:01:25.641Z,14.23
2017-06-23T15:03:54.809Z,15.37
2017-06-23T15:06:28.037Z,14.60
2017-06-23T15:08:57.255Z,15.27
2017-06-23T15:11:26.461Z,14.63
2017-06-23T15:13:55.705Z,13.80
2017-06-23T15:16:24.888Z,13.30
2017-06-23T15:18:53.952Z,13.83
2017-06-23T15:21:23.011Z,12.60
2017-06-23T15:23:53.930Z,12.47
2017-06-23T15:26:23.064Z,11.70
2017-06-23T15:28:52.153Z,12.20
2017-06-23T15:31:21.186Z,11.80
2017-06-23T15:33:50.323Z,11.00
2017-06-23T15:36:19.476Z,12.10
2017-06-23T15:38:48.566Z,10.97
2017-06-23T15:41:17.642Z,11.27
2017-06-23T15:43:47.023Z,11.27
2017-06-23T15:46:16.087Z,11.10
2017-06-23T15:48:45.495Z,10.50
2017-06-23T15:51:14.638Z,9.80
2017-06-23T15:53:43.987Z,10.37
2017-06-23T15:56:13.068Z,9.80
2017-06-23T15:58:42.138Z,9.60
2017-06-23T16:01:11.397Z,10.00
2017-06-23T16:03:40.522Z,9.60
2017-06-23T16:06:09.617Z,9.33
2017-06-23T16:08:38.714Z,9.17
2017-06-23T16:11:07.891Z,9.50
2017-06-23T16:13:37.094Z,9.13
2017-06-23T16:16:06.378Z,9.57
2017-06-23T16:18:35.504Z,8.73
2017-06-23T16:21:04.750Z,9.07
2017-06-23T16:23:33.792Z,8.30
2017-06-23T16:26:02.869Z,9.67
2017-06-23T16:28:31.945Z,8.20
2017-06-23T16:31:01.081Z,9.80
2017-06-23T16:33:30.139Z,9.13
2017-06-23T16:35:59.312Z,8.77
2017-06-23T16:38:28.421Z,8.63
2017-06-23T16:40:57.571Z,9.80
2017-06-23T16:43:26.648Z,10.10
2017-06-23T16:45:56.195Z,9.57
2017-06-23T16:48:26.121Z,9.80
2017-06-23T16:50:55.181Z,9.40
2017-06-23T16:53:24.323Z,8.67
2017-06-23T16:55:53.477Z,9.30
2017-06-23T16:58:22.669Z,9.50
2017-06-23T17:00:51.742Z,9.10
2017-06-23T17:03:20.895Z,9.13
2017-06-23T17:05:50.210Z,8.50
2017-06-23T17:08:19.283Z,9.33
2017-06-23T17:10:48.395Z,9.00
2017-06-23T17:13:17.446Z,10.20
2017-06-23T17:15:46.952Z,8.83
2017-06-23T17:18:16.128Z,9.10
2017-06-23T17:20:46.122Z,8.67
2017-06-23T17:23:15.297Z,8.60
2017-06-23T17:25:44.409Z,9.30
2017-06-23T17:28:13.469Z,9.40
2017-06-23T17:30:42.517Z,8.20
2017-06-23T17:33:11.660Z,8.10
2017-06-23T17:35:40.858Z,8.30
2017-06-23T17:38:09.992Z,8.67
2017-06-23T17:40:39.912Z,8.60
2017-06-23T17:43:08.994Z,8.43
2017-06-23T17:45:38.080Z,8.30
2017-06-23T17:48:07.294Z,7.83
2017-06-23T17:50:36.424Z,8.70
2017-06-23T17:53:05.666Z,8.10
2017-06-23T17:55:34.722Z,8.17
2017-06-23T17:58:03.831Z,7.83
2017-06-23T18:00:32.945Z,8.00
2017-06-23T18:03:02.078Z,8.53
2017-06-23T18:05:31.453Z,7.90
2017-06-23T18:08:00.447Z,8.87
2017-06-23T18:10:30.518Z,8.57
2017-06-23T18:12:59.612Z,8.17
2017-06-23T18:15:30.622Z,8.53
2017-06-23T18:17:59.640Z,8.33
2017-06-23T18:20:31.276Z,8.33
2017-06-23T18:23:00.561Z,7.97
2017-06-23T18:25:30.384Z,7.60
2017-06-23T18:27:59.490Z,9.10
2017-06-23T18:30:31.229Z,7.23
2017-06-23T18:33:00.349Z,8.40
2017-06-23T18:35:31.725Z,7.50
2017-06-23T18:38:00.752Z,7.90
2017-06-23T18:40:29.801Z,8.57
2017-06-23T18:42:58.931Z,7.30
2017-06-23T18:45:29.478Z,7.70
2017-06-23T18:47:58.611Z,7.07
2017-06-23T18:50:27.649Z,7.60
2017-06-23T18:52:56.708Z,7.20
2017-06-23T18:55:25.735Z,7.40
2017-06-23T18:57:54.795Z,7.20
2017-06-23T19:00:23.800Z,7.60
2017-06-23T19:02:52.790Z,7.77
2017-06-23T19:05:21.810Z,7.70
2017-06-23T19:07:50.846Z,7.80
2017-06-23T19:10:19.841Z,7.00
2017-06-23T19:12:48.964Z,7.40
2017-06-23T19:15:17.973Z,8.13
2017-06-23T19:17:47.057Z,8.27
2017-06-23T19:20:16.165Z,7.73
2017-06-23T19:22:45.225Z,8.07
2017-06-23T19:25:14.219Z,7.67
2017-06-23T19:27:43.310Z,8.47
2017-06-23T19:30:12.317Z,8.13
2017-06-23T19:32:41.389Z,7.30
2017-06-23T19:35:10.445Z,8.03
2017-06-23T19:37:39.541Z,8.67
2017-06-23T19:40:08.688Z,7.33
2017-06-23T19:42:37.796Z,8.60
2017-06-23T19:45:06.882Z,13.90
2017-06-23T19:47:35.954Z,10.40
2017-06-23T19:50:04.968Z,8.93
2017-06-23T19:52:34.033Z,9.07
2017-06-23T19:55:03.069Z,7.90
2017-06-23T19:57:32.114Z,8.90
2017-06-23T20:00:01.186Z,8.60
2017-06-23T20:02:30.241Z,8.73
2017-06-23T20:04:59.295Z,9.00
2017-06-23T20:07:29.215Z,8.57
2017-06-23T20:09:59.050Z,9.20
2017-06-23T20:12:29.694Z,9.30
2017-06-23T20:14:58.798Z,8.60
2017-06-23T20:17:30.747Z,8.30
2017-06-23T20:19:59.779Z,8.93
2017-06-23T20:22:29.276Z,9.60
2017-06-23T20:24:58.586Z,9.60
2017-06-23T20:27:28.514Z,10.47
2017-06-23T20:29:57.561Z,9.13
2017-06-23T20:32:27.705Z,10.00
2017-06-23T20:34:57.108Z,10.13
2017-06-23T20:37:26.154Z,10.37
2017-06-23T20:39:55.215Z,10.43
2017-06-23T20:42:24.427Z,9.57
2017-06-23T20:44:53.506Z,9.43
2017-06-23T20:47:22.665Z,10.30
2017-06-23T20:49:51.693Z,10.80
2017-06-23T20:52:20.733Z,9.67
2017-06-23T20:54:49.790Z,10.03
2017-06-23T20:57:18.934Z,9.70
2017-06-23T20:59:48.078Z,10.43
2017-06-23T21:02:17.182Z,10.47
2017-06-23T21:04:46.194Z,10.53
2017-06-23T21:07:15.659Z,9.73
2017-06-23T21:09:44.799Z,9.80
2017-06-23T21:12:13.817Z,10.30
2017-06-23T21:14:42.828Z,10.70
2017-06-23T21:17:11.892Z,10.50
2017-06-23T21:19:40.890Z,10.93
2017-06-23T21:22:09.943Z,10.13
2017-06-23T21:24:38.994Z,9.23
2017-06-23T21:27:08.128Z,10.27
2017-06-23T21:29:37.222Z,11.03
2017-06-23T21:32:06.311Z,10.50
2017-06-23T21:34:35.340Z,10.60
2017-06-23T21:37:04.392Z,10.27
2017-06-23T21:39:33.477Z,10.23
2017-06-23T21:42:02.505Z,9.63
2017-06-23T21:44:31.528Z,10.27
2017-06-23T21:47:00.561Z,10.93
2017-06-23T21:49:30.976Z,10.03
2017-06-23T21:52:00.070Z,9.70
2017-06-23T21:54:30.547Z,10.50
2017-06-23T21:56:59.629Z,9.37
2017-06-23T21:59:30.281Z,9.20
2017-06-23T22:01:59.389Z,9.60
2017-06-23T22:04:29.558Z,10.77
2017-06-23T22:06:58.655Z,9.13
2017-06-23T22:09:29.586Z,10.07
2017-06-23T22:11:58.669Z,8.93
2017-06-23T22:14:29.777Z,8.40
2017-06-23T22:16:58.756Z,8.50
2017-06-23T22:19:29.542Z,9.63
2017-06-23T22:21:58.607Z,8.50
2017-06-23T22:24:28.916Z,9.70
2017-06-23T22:26:57.943Z,8.23
2017-06-23T22:29:27.959Z,8.40
2017-06-23T22:31:57.025Z,8.70
2017-06-23T22:34:26.016Z,8.90
2017-06-23T22:36:54.994Z,8.83
2017-06-23T22:39:24.545Z,9.20
2017-06-23T22:41:53.575Z,8.70
2017-06-23T22:44:22.665Z,8.00
2017-06-23T22:46:51.716Z,8.43
2017-06-23T22:49:20.729Z,8.00
2017-06-23T22:51:49.697Z,8.20
2017-06-23T22:54:19.013Z,8.40
2017-06-23T22:56:48.097Z,7.50
2017-06-23T22:59:17.137Z,8.33
2017-06-23T23:01:46.104Z,7.87
2017-06-23T23:04:15.079Z,8.43
2017-06-23T23:06:44.070Z,8.83
2017-06-23T23:09:13.090Z,7.87
2017-06-23T23:11:42.102Z,8.30
2017-06-23T23:14:11.129Z,8.83
2017-06-23T23:16:40.210Z,8.50
2017-06-23T23:19:09.231Z,8.20
2017-06-23T23:21:38.236Z,8.47
2017-06-23T23:24:07.233Z,9.67
2017-06-23T23:26:36.226Z,7.97
2017-06-23T23:29:05.228Z,8.27
2017-06-23T23:31:34.249Z,8.70
2017-06-23T23:34:03.224Z,9.50
2017-06-23T23:36:32.853Z,8.23
2017-06-23T23:39:02.009Z,8.50
2017-06-23T23:41:31.145Z,8.57
2017-06-23T23:44:00.179Z,8.90
2017-06-23T23:46:29.150Z,8.60
2017-06-23T23:48:58.220Z,7.20
2017-06-23T23:51:27.265Z,8.17
2017-06-23T23:53:56.320Z,8.97
2017-06-23T23:56:25.285Z,8.33
2017-06-23T23:58:54.305Z,9.33
